sensor_id;sensor_type;location;lat;lon;timestamp;P1;durP1;ratioP1;P2;durP2;ratioP2
11125;SDS011;5617;54.046;10.676;2022-08-19T00:01:29;22.60;;;20.20;;
11125;SDS011;5617;54.046;10.676;2022-08-19T00:03:37;22.57;;;20.17;;
11125;SDS011;5617;54.046;10.676;2022-08-19T00:05:44;23.60;;;21.20;;
11125;SDS011;5617;54.046;10.676;2022-08-19T00:07:52;22.80;;;20.47;;
11125;SDS011;5617;54.046;10.676;2022-08-19T00:10:01;22.33;;;19.97;;
11125;SDS011;5617;54.046;10.676;2022-08-19T00:12:09;23.60;;;20.43;;
11125;SDS011;5617;54.046;10.676;2022-08-19T00:14:17;23.27;;;20.77;;
11125;SDS011;5617;54.046;10.676;2022-08-19T00:16:27;23.10;;;20.67;;
11125;SDS011;5617;54.046;10.676;2022-08-19T00:18:35;23.53;;;20.77;;
11125;SDS011;5617;54.046;10.676;2022-08-19T00:20:43;22.70;;;20.47;;
11125;SDS011;5617;54.046;10.676;2022-08-19T00:22:50;22.37;;;20.07;;
11125;SDS011;5617;54.046;10.676;2022-08-19T00:24:59;24.07;;;21.33;;
11125;SDS011;5617;54.046;10.676;2022-08-19T00:27:08;22.43;;;20.23;;
11125;SDS011;5617;54.046;10.676;2022-08-19T00:29:16;23.83;;;21.43;;
11125;SDS011;5617;54.046;10.676;2022-08-19T00:31:30;21.03;;;18.80;;
11125;SDS011;5617;54.046;10.676;2022-08-19T00:33:39;22.03;;;19.87;;
11125;SDS011;5617;54.046;10.676;2022-08-19T00:35:47;21.67;;;19.40;;
11125;SDS011;5617;54.046;10.676;2022-08-19T00:37:56;21.07;;;19.00;;
11125;SDS011;5617;54.046;10.676;2022-08-19T00:40:05;21.97;;;19.73;;
11125;SDS011;5617;54.046;10.676;2022-08-19T00:42:15;22.60;;;20.20;;
11125;SDS011;5617;54.046;10.676;2022-08-19T00:44:24;22.30;;;20.10;;
11125;SDS011;5617;54.046;10.676;2022-08-19T00:46:35;22.07;;;19.83;;
11125;SDS011;5617;54.046;10.676;2022-08-19T00:48:43;21.33;;;19.17;;
11125;SDS011;5617;54.046;10.676;2022-08-19T00:50:51;21.43;;;19.20;;
11125;SDS011;5617;54.046;10.676;2022-08-19T00:53:01;20.23;;;18.17;;
11125;SDS011;5617;54.046;10.676;2022-08-19T00:55:13;20.43;;;18.33;;
11125;SDS011;5617;54.046;10.676;2022-08-19T00:57:29;21.10;;;18.87;;
11125;SDS011;5617;54.046;10.676;2022-08-19T00:59:42;20.43;;;18.33;;
11125;SDS011;5617;54.046;10.676;2022-08-19T01:01:52;21.40;;;19.20;;
11125;SDS011;5617;54.046;10.676;2022-08-19T01:04:01;23.87;;;18.63;;
11125;SDS011;5617;54.046;10.676;2022-08-19T01:06:09;21.47;;;19.13;;
11125;SDS011;5617;54.046;10.676;2022-08-19T01:08:18;21.30;;;19.00;;
11125;SDS011;5617;54.046;10.676;2022-08-19T01:10:27;22.33;;;18.70;;
11125;SDS011;5617;54.046;10.676;2022-08-19T01:12:39;21.77;;;18.93;;
11125;SDS011;5617;54.046;10.676;2022-08-19T01:14:46;22.23;;;18.43;;
11125;SDS011;5617;54.046;10.676;2022-08-19T01:16:54;21.40;;;17.90;;
11125;SDS011;5617;54.046;10.676;2022-08-19T01:19:08;21.97;;;18.60;;
11125;SDS011;5617;54.046;10.676;2022-08-19T01:21:22;20.70;;;18.07;;
11125;SDS011;5617;54.046;10.676;2022-08-19T01:23:35;19.10;;;17.13;;
11125;SDS011;5617;54.046;10.676;2022-08-19T01:25:52;21.83;;;17.63;;
11125;SDS011;5617;54.046;10.676;2022-08-19T01:28:01;19.70;;;17.60;;
11125;SDS011;5617;54.046;10.676;2022-08-19T01:30:10;19.77;;;16.50;;
11125;SDS011;5617;54.046;10.676;2022-08-19T01:32:20;19.60;;;17.03;;
11125;SDS011;5617;54.046;10.676;2022-08-19T01:34:27;18.53;;;16.63;;
11125;SDS011;5617;54.046;10.676;2022-08-19T01:36:37;18.90;;;17.07;;
11125;SDS011;5617;54.046;10.676;2022-08-19T01:38:48;18.80;;;16.80;;
11125;SDS011;5617;54.046;10.676;2022-08-19T01:40:59;19.63;;;17.63;;
11125;SDS011;5617;54.046;10.676;2022-08-19T01:43:07;19.30;;;17.10;;
11125;SDS011;5617;54.046;10.676;2022-08-19T01:45:15;18.87;;;16.60;;
11125;SDS011;5617;54.046;10.676;2022-08-19T01:47:24;18.90;;;16.90;;
11125;SDS011;5617;54.046;10.676;2022-08-19T01:49:31;17.47;;;15.67;;
11125;SDS011;5617;54.046;10.676;2022-08-19T01:51:39;18.37;;;16.40;;
11125;SDS011;5617;54.046;10.676;2022-08-19T01:53:48;18.97;;;17.00;;
11125;SDS011;5617;54.046;10.676;2022-08-19T01:55:57;20.57;;;16.77;;
11125;SDS011;5617;54.046;10.676;2022-08-19T01:58:04;18.33;;;16.40;;
11125;SDS011;5617;54.046;10.676;2022-08-19T02:00:15;17.73;;;15.67;;
11125;SDS011;5617;54.046;10.676;2022-08-19T02:02:33;18.67;;;16.63;;
11125;SDS011;5617;54.046;10.676;2022-08-19T02:04:41;19.37;;;17.37;;
11125;SDS011;5617;54.046;10.676;2022-08-19T02:06:48;19.53;;;17.03;;
11125;SDS011;5617;54.046;10.676;2022-08-19T02:08:57;21.60;;;17.50;;
11125;SDS011;5617;54.046;10.676;2022-08-19T02:11:05;19.60;;;17.50;;
11125;SDS011;5617;54.046;10.676;2022-08-19T02:13:14;20.30;;;18.30;;
11125;SDS011;5617;54.046;10.676;2022-08-19T02:15:21;21.07;;;18.07;;
11125;SDS011;5617;54.046;10.676;2022-08-19T02:17:29;20.00;;;18.00;;
11125;SDS011;5617;54.046;10.676;2022-08-19T02:19:37;20.27;;;18.00;;
11125;SDS011;5617;54.046;10.676;2022-08-19T02:21:46;18.83;;;16.83;;
11125;SDS011;5617;54.046;10.676;2022-08-19T02:23:53;19.93;;;17.47;;
11125;SDS011;5617;54.046;10.676;2022-08-19T02:26:03;20.50;;;17.70;;
11125;SDS011;5617;54.046;10.676;2022-08-19T02:28:12;20.50;;;18.10;;
11125;SDS011;5617;54.046;10.676;2022-08-19T02:30:20;20.10;;;17.90;;
11125;SDS011;5617;54.046;10.676;2022-08-19T02:32:28;20.53;;;17.90;;
11125;SDS011;5617;54.046;10.676;2022-08-19T02:34:36;19.70;;;17.70;;
11125;SDS011;5617;54.046;10.676;2022-08-19T02:36:43;22.13;;;19.13;;
11125;SDS011;5617;54.046;10.676;2022-08-19T02:38:51;19.70;;;17.70;;
11125;SDS011;5617;54.046;10.676;2022-08-19T02:40:59;20.57;;;18.17;;
11125;SDS011;5617;54.046;10.676;2022-08-19T02:43:11;20.47;;;18.30;;
11125;SDS011;5617;54.046;10.676;2022-08-19T02:45:18;20.60;;;18.40;;
11125;SDS011;5617;54.046;10.676;2022-08-19T02:47:25;23.13;;;19.23;;
11125;SDS011;5617;54.046;10.676;2022-08-19T02:49:34;21.17;;;18.87;;
11125;SDS011;5617;54.046;10.676;2022-08-19T02:51:43;22.60;;;18.50;;
11125;SDS011;5617;54.046;10.676;2022-08-19T02:53:52;23.43;;;18.60;;
11125;SDS011;5617;54.046;10.676;2022-08-19T02:56:01;21.30;;;18.40;;
11125;SDS011;5617;54.046;10.676;2022-08-19T02:58:14;21.60;;;18.47;;
11125;SDS011;5617;54.046;10.676;2022-08-19T03:00:22;23.13;;;18.73;;
11125;SDS011;5617;54.046;10.676;2022-08-19T03:02:30;20.40;;;18.20;;
11125;SDS011;5617;54.046;10.676;2022-08-19T03:04:41;21.87;;;18.40;;
11125;SDS011;5617;54.046;10.676;2022-08-19T03:06:49;20.57;;;17.77;;
11125;SDS011;5617;54.046;10.676;2022-08-19T03:08:58;19.77;;;17.67;;
11125;SDS011;5617;54.046;10.676;2022-08-19T03:11:11;19.27;;;17.27;;
11125;SDS011;5617;54.046;10.676;2022-08-19T03:13:22;19.47;;;17.60;;
11125;SDS011;5617;54.046;10.676;2022-08-19T03:15:30;19.70;;;17.70;;
11125;SDS011;5617;54.046;10.676;2022-08-19T03:17:39;20.17;;;17.87;;
11125;SDS011;5617;54.046;10.676;2022-08-19T03:19:47;20.27;;;17.73;;
11125;SDS011;5617;54.046;10.676;2022-08-19T03:21:54;20.10;;;17.97;;
11125;SDS011;5617;54.046;10.676;2022-08-19T03:24:03;19.40;;;17.47;;
11125;SDS011;5617;54.046;10.676;2022-08-19T03:26:14;20.63;;;18.40;;
11125;SDS011;5617;54.046;10.676;2022-08-19T03:28:23;20.60;;;18.57;;
11125;SDS011;5617;54.046;10.676;2022-08-19T03:30:34;20.83;;;18.27;;
11125;SDS011;5617;54.046;10.676;2022-08-19T03:32:41;20.53;;;18.00;;
11125;SDS011;5617;54.046;10.676;2022-08-19T03:34:49;23.67;;;18.90;;
11125;SDS011;5617;54.046;10.676;2022-08-19T03:36:58;21.33;;;18.97;;
11125;SDS011;5617;54.046;10.676;2022-08-19T03:39:11;20.60;;;18.27;;
11125;SDS011;5617;54.046;10.676;2022-08-19T03:41:21;22.63;;;18.63;;
11125;SDS011;5617;54.046;10.676;2022-08-19T03:43:31;22.03;;;18.83;;
11125;SDS011;5617;54.046;10.676;2022-08-19T03:45:40;22.50;;;20.00;;
11125;SDS011;5617;54.046;10.676;2022-08-19T03:47:48;21.60;;;19.20;;
11125;SDS011;5617;54.046;10.676;2022-08-19T03:49:55;22.40;;;19.27;;
11125;SDS011;5617;54.046;10.676;2022-08-19T03:52:03;23.13;;;19.57;;
11125;SDS011;5617;54.046;10.676;2022-08-19T03:54:13;23.03;;;20.00;;
11125;SDS011;5617;54.046;10.676;2022-08-19T03:56:22;24.77;;;20.90;;
11125;SDS011;5617;54.046;10.676;2022-08-19T03:58:32;26.70;;;20.90;;
11125;SDS011;5617;54.046;10.676;2022-08-19T04:00:41;25.03;;;19.73;;
11125;SDS011;5617;54.046;10.676;2022-08-19T04:02:50;24.30;;;20.53;;
11125;SDS011;5617;54.046;10.676;2022-08-19T04:04:58;25.87;;;20.80;;
11125;SDS011;5617;54.046;10.676;2022-08-19T04:07:06;23.73;;;20.63;;
11125;SDS011;5617;54.046;10.676;2022-08-19T04:09:15;27.57;;;22.03;;
11125;SDS011;5617;54.046;10.676;2022-08-19T04:11:23;24.73;;;21.03;;
11125;SDS011;5617;54.046;10.676;2022-08-19T04:13:34;25.03;;;19.97;;
11125;SDS011;5617;54.046;10.676;2022-08-19T04:15:42;28.63;;;22.03;;
11125;SDS011;5617;54.046;10.676;2022-08-19T04:17:52;26.97;;;21.40;;
11125;SDS011;5617;54.046;10.676;2022-08-19T04:20:00;26.40;;;20.53;;
11125;SDS011;5617;54.046;10.676;2022-08-19T04:22:11;26.33;;;21.57;;
11125;SDS011;5617;54.046;10.676;2022-08-19T04:24:18;27.73;;;21.87;;
11125;SDS011;5617;54.046;10.676;2022-08-19T04:26:27;28.97;;;22.33;;
11125;SDS011;5617;54.046;10.676;2022-08-19T04:28:39;26.80;;;21.30;;
11125;SDS011;5617;54.046;10.676;2022-08-19T04:30:47;28.57;;;22.03;;
11125;SDS011;5617;54.046;10.676;2022-08-19T04:32:56;30.10;;;22.63;;
11125;SDS011;5617;54.046;10.676;2022-08-19T04:35:03;31.37;;;22.23;;
11125;SDS011;5617;54.046;10.676;2022-08-19T04:37:11;29.67;;;22.20;;
11125;SDS011;5617;54.046;10.676;2022-08-19T04:39:20;28.67;;;22.87;;
11125;SDS011;5617;54.046;10.676;2022-08-19T04:41:50;32.43;;;23.00;;
11125;SDS011;5617;54.046;10.676;2022-08-19T04:44:16;31.93;;;21.77;;
11125;SDS011;5617;54.046;10.676;2022-08-19T04:46:25;27.90;;;21.70;;
11125;SDS011;5617;54.046;10.676;2022-08-19T04:48:34;29.73;;;23.27;;
11125;SDS011;5617;54.046;10.676;2022-08-19T04:50:44;35.27;;;22.30;;
11125;SDS011;5617;54.046;10.676;2022-08-19T04:52:51;31.60;;;23.17;;
11125;SDS011;5617;54.046;10.676;2022-08-19T04:55:01;35.77;;;23.70;;
11125;SDS011;5617;54.046;10.676;2022-08-19T04:57:09;38.97;;;24.13;;
11125;SDS011;5617;54.046;10.676;2022-08-19T04:59:18;39.33;;;23.20;;
11125;SDS011;5617;54.046;10.676;2022-08-19T05:01:27;38.70;;;23.77;;
11125;SDS011;5617;54.046;10.676;2022-08-19T05:03:36;36.30;;;24.03;;
11125;SDS011;5617;54.046;10.676;2022-08-19T05:05:45;40.80;;;23.80;;
11125;SDS011;5617;54.046;10.676;2022-08-19T05:07:54;35.17;;;24.10;;
11125;SDS011;5617;54.046;10.676;2022-08-19T05:10:04;32.43;;;23.97;;
11125;SDS011;5617;54.046;10.676;2022-08-19T05:12:12;36.27;;;22.90;;
11125;SDS011;5617;54.046;10.676;2022-08-19T05:14:22;31.80;;;22.73;;
11125;SDS011;5617;54.046;10.676;2022-08-19T05:16:31;35.13;;;23.47;;
11125;SDS011;5617;54.046;10.676;2022-08-19T05:18:38;33.03;;;22.83;;
11125;SDS011;5617;54.046;10.676;2022-08-19T05:21:05;34.33;;;23.17;;
11125;SDS011;5617;54.046;10.676;2022-08-19T05:23:31;33.73;;;23.33;;
11125;SDS011;5617;54.046;10.676;2022-08-19T05:25:39;34.13;;;23.73;;
11125;SDS011;5617;54.046;10.676;2022-08-19T05:27:47;35.83;;;22.80;;
11125;SDS011;5617;54.046;10.676;2022-08-19T05:29:58;32.97;;;23.40;;
11125;SDS011;5617;54.046;10.676;2022-08-19T05:32:06;37.50;;;23.47;;
11125;SDS011;5617;54.046;10.676;2022-08-19T05:34:15;33.33;;;22.60;;
11125;SDS011;5617;54.046;10.676;2022-08-19T05:36:23;33.73;;;22.50;;
11125;SDS011;5617;54.046;10.676;2022-08-19T05:38:30;35.43;;;23.77;;
11125;SDS011;5617;54.046;10.676;2022-08-19T05:40:38;38.30;;;24.47;;
11125;SDS011;5617;54.046;10.676;2022-08-19T05:42:47;41.03;;;24.83;;
11125;SDS011;5617;54.046;10.676;2022-08-19T05:44:55;35.90;;;22.90;;
11125;SDS011;5617;54.046;10.676;2022-08-19T05:47:05;35.63;;;23.87;;
11125;SDS011;5617;54.046;10.676;2022-08-19T05:49:14;38.23;;;23.53;;
11125;SDS011;5617;54.046;10.676;2022-08-19T05:51:22;36.90;;;24.13;;
11125;SDS011;5617;54.046;10.676;2022-08-19T05:53:30;45.07;;;24.63;;
11125;SDS011;5617;54.046;10.676;2022-08-19T05:55:38;39.60;;;24.97;;
11125;SDS011;5617;54.046;10.676;2022-08-19T05:57:47;40.47;;;25.00;;
11125;SDS011;5617;54.046;10.676;2022-08-19T05:59:55;42.03;;;24.97;;
11125;SDS011;5617;54.046;10.676;2022-08-19T06:02:07;39.33;;;24.80;;
11125;SDS011;5617;54.046;10.676;2022-08-19T06:04:14;41.27;;;25.17;;
11125;SDS011;5617;54.046;10.676;2022-08-19T06:06:24;40.30;;;26.20;;
11125;SDS011;5617;54.046;10.676;2022-08-19T06:08:33;41.83;;;25.77;;
11125;SDS011;5617;54.046;10.676;2022-08-19T06:10:41;43.33;;;26.23;;
11125;SDS011;5617;54.046;10.676;2022-08-19T06:12:49;42.10;;;25.67;;
11125;SDS011;5617;54.046;10.676;2022-08-19T06:14:58;44.47;;;27.37;;
11125;SDS011;5617;54.046;10.676;2022-08-19T06:17:07;47.87;;;27.17;;
11125;SDS011;5617;54.046;10.676;2022-08-19T06:19:15;43.67;;;27.47;;
11125;SDS011;5617;54.046;10.676;2022-08-19T06:21:26;41.93;;;26.43;;
11125;SDS011;5617;54.046;10.676;2022-08-19T06:23:36;45.17;;;26.27;;
11125;SDS011;5617;54.046;10.676;2022-08-19T06:25:44;41.13;;;26.70;;
11125;SDS011;5617;54.046;10.676;2022-08-19T06:27:52;46.90;;;27.03;;
11125;SDS011;5617;54.046;10.676;2022-08-19T06:29:59;42.80;;;26.53;;
11125;SDS011;5617;54.046;10.676;2022-08-19T06:32:09;47.30;;;25.70;;
11125;SDS011;5617;54.046;10.676;2022-08-19T06:34:17;47.57;;;26.57;;
11125;SDS011;5617;54.046;10.676;2022-08-19T06:36:28;49.10;;;27.40;;
11125;SDS011;5617;54.046;10.676;2022-08-19T06:38:39;48.13;;;27.57;;
11125;SDS011;5617;54.046;10.676;2022-08-19T06:40:47;47.50;;;27.63;;
11125;SDS011;5617;54.046;10.676;2022-08-19T06:42:54;51.73;;;28.30;;
11125;SDS011;5617;54.046;10.676;2022-08-19T06:45:04;50.90;;;29.10;;
11125;SDS011;5617;54.046;10.676;2022-08-19T06:47:16;52.17;;;27.80;;
11125;SDS011;5617;54.046;10.676;2022-08-19T06:49:24;50.37;;;28.23;;
11125;SDS011;5617;54.046;10.676;2022-08-19T06:51:36;49.27;;;26.33;;
11125;SDS011;5617;54.046;10.676;2022-08-19T06:53:45;48.97;;;27.37;;
11125;SDS011;5617;54.046;10.676;2022-08-19T06:55:52;49.73;;;27.53;;
11125;SDS011;5617;54.046;10.676;2022-08-19T06:58:10;50.83;;;27.77;;
11125;SDS011;5617;54.046;10.676;2022-08-19T07:00:18;51.10;;;28.07;;
11125;SDS011;5617;54.046;10.676;2022-08-19T07:02:26;53.37;;;27.63;;
11125;SDS011;5617;54.046;10.676;2022-08-19T07:04:34;49.47;;;27.77;;
11125;SDS011;5617;54.046;10.676;2022-08-19T07:06:44;48.60;;;27.37;;
11125;SDS011;5617;54.046;10.676;2022-08-19T07:08:52;52.93;;;28.27;;
11125;SDS011;5617;54.046;10.676;2022-08-19T07:11:00;51.93;;;27.33;;
11125;SDS011;5617;54.046;10.676;2022-08-19T07:13:08;55.17;;;27.93;;
11125;SDS011;5617;54.046;10.676;2022-08-19T07:15:16;54.80;;;28.37;;
11125;SDS011;5617;54.046;10.676;2022-08-19T07:17:24;50.67;;;28.13;;
11125;SDS011;5617;54.046;10.676;2022-08-19T07:19:34;46.53;;;26.73;;
11125;SDS011;5617;54.046;10.676;2022-08-19T07:21:42;48.13;;;28.17;;
11125;SDS011;5617;54.046;10.676;2022-08-19T07:23:50;49.53;;;27.77;;
11125;SDS011;5617;54.046;10.676;2022-08-19T07:25:59;51.27;;;28.20;;
11125;SDS011;5617;54.046;10.676;2022-08-19T07:28:11;46.73;;;28.13;;
11125;SDS011;5617;54.046;10.676;2022-08-19T07:30:19;47.63;;;27.13;;
11125;SDS011;5617;54.046;10.676;2022-08-19T07:32:28;46.40;;;26.77;;
11125;SDS011;5617;54.046;10.676;2022-08-19T07:34:37;49.60;;;28.20;;
11125;SDS011;5617;54.046;10.676;2022-08-19T07:36:48;51.33;;;27.03;;
11125;SDS011;5617;54.046;10.676;2022-08-19T07:38:56;50.07;;;27.50;;
11125;SDS011;5617;54.046;10.676;2022-08-19T07:41:06;54.23;;;27.07;;
11125;SDS011;5617;54.046;10.676;2022-08-19T07:43:14;52.03;;;26.37;;
11125;SDS011;5617;54.046;10.676;2022-08-19T07:45:22;50.90;;;27.97;;
11125;SDS011;5617;54.046;10.676;2022-08-19T07:47:30;46.80;;;26.80;;
11125;SDS011;5617;54.046;10.676;2022-08-19T07:49:39;49.97;;;25.57;;
11125;SDS011;5617;54.046;10.676;2022-08-19T07:51:49;51.93;;;26.93;;
11125;SDS011;5617;54.046;10.676;2022-08-19T07:53:57;52.00;;;27.27;;
11125;SDS011;5617;54.046;10.676;2022-08-19T07:56:10;47.00;;;26.03;;
11125;SDS011;5617;54.046;10.676;2022-08-19T07:58:20;48.67;;;25.60;;
11125;SDS011;5617;54.046;10.676;2022-08-19T08:00:28;46.50;;;25.17;;
11125;SDS011;5617;54.046;10.676;2022-08-19T08:02:36;48.20;;;25.97;;
11125;SDS011;5617;54.046;10.676;2022-08-19T08:04:46;53.33;;;26.10;;
11125;SDS011;5617;54.046;10.676;2022-08-19T08:07:12;45.83;;;25.23;;
11125;SDS011;5617;54.046;10.676;2022-08-19T08:09:38;42.70;;;25.17;;
11125;SDS011;5617;54.046;10.676;2022-08-19T08:11:50;41.43;;;24.80;;
11125;SDS011;5617;54.046;10.676;2022-08-19T08:14:00;39.43;;;23.80;;
11125;SDS011;5617;54.046;10.676;2022-08-19T08:16:08;38.27;;;23.90;;
11125;SDS011;5617;54.046;10.676;2022-08-19T08:18:16;39.10;;;23.77;;
11125;SDS011;5617;54.046;10.676;2022-08-19T08:20:27;40.00;;;23.27;;
11125;SDS011;5617;54.046;10.676;2022-08-19T08:22:34;44.10;;;24.10;;
11125;SDS011;5617;54.046;10.676;2022-08-19T08:25:06;43.37;;;24.20;;
11125;SDS011;5617;54.046;10.676;2022-08-19T08:27:19;40.13;;;22.50;;
11125;SDS011;5617;54.046;10.676;2022-08-19T08:29:28;42.37;;;23.23;;
11125;SDS011;5617;54.046;10.676;2022-08-19T08:31:37;38.07;;;22.33;;
11125;SDS011;5617;54.046;10.676;2022-08-19T08:33:45;42.83;;;23.23;;
11125;SDS011;5617;54.046;10.676;2022-08-19T08:35:54;36.53;;;21.87;;
11125;SDS011;5617;54.046;10.676;2022-08-19T08:38:02;36.83;;;22.03;;
11125;SDS011;5617;54.046;10.676;2022-08-19T08:40:13;35.63;;;21.47;;
11125;SDS011;5617;54.046;10.676;2022-08-19T08:42:27;38.53;;;22.00;;
11125;SDS011;5617;54.046;10.676;2022-08-19T08:44:39;40.00;;;22.20;;
11125;SDS011;5617;54.046;10.676;2022-08-19T08:46:56;36.70;;;20.93;;
11125;SDS011;5617;54.046;10.676;2022-08-19T08:49:13;39.30;;;21.70;;
11125;SDS011;5617;54.046;10.676;2022-08-19T08:51:29;37.77;;;22.30;;
11125;SDS011;5617;54.046;10.676;2022-08-19T08:53:40;39.03;;;22.57;;
11125;SDS011;5617;54.046;10.676;2022-08-19T08:55:50;32.70;;;20.87;;
11125;SDS011;5617;54.046;10.676;2022-08-19T08:57:59;36.80;;;22.50;;
11125;SDS011;5617;54.046;10.676;2022-08-19T09:00:10;36.47;;;21.33;;
11125;SDS011;5617;54.046;10.676;2022-08-19T09:02:22;35.03;;;21.40;;
11125;SDS011;5617;54.046;10.676;2022-08-19T09:04:33;36.37;;;21.27;;
11125;SDS011;5617;54.046;10.676;2022-08-19T09:06:47;30.93;;;20.70;;
11125;SDS011;5617;54.046;10.676;2022-08-19T09:09:03;38.40;;;22.13;;
11125;SDS011;5617;54.046;10.676;2022-08-19T09:11:13;33.47;;;20.80;;
11125;SDS011;5617;54.046;10.676;2022-08-19T09:13:42;31.47;;;20.83;;
11125;SDS011;5617;54.046;10.676;2022-08-19T09:16:00;31.90;;;21.50;;
11125;SDS011;5617;54.046;10.676;2022-08-19T09:18:12;36.03;;;21.23;;
11125;SDS011;5617;54.046;10.676;2022-08-19T09:20:21;31.17;;;21.27;;
11125;SDS011;5617;54.046;10.676;2022-08-19T09:22:33;32.50;;;20.87;;
11125;SDS011;5617;54.046;10.676;2022-08-19T09:24:41;33.50;;;20.50;;
11125;SDS011;5617;54.046;10.676;2022-08-19T09:26:52;34.23;;;21.43;;
11125;SDS011;5617;54.046;10.676;2022-08-19T09:29:00;31.70;;;21.23;;
11125;SDS011;5617;54.046;10.676;2022-08-19T09:31:11;29.60;;;20.63;;
11125;SDS011;5617;54.046;10.676;2022-08-19T09:33:20;35.13;;;21.87;;
11125;SDS011;5617;54.046;10.676;2022-08-19T09:35:29;28.20;;;20.83;;
11125;SDS011;5617;54.046;10.676;2022-08-19T09:37:38;32.67;;;21.57;;
11125;SDS011;5617;54.046;10.676;2022-08-19T09:39:46;30.27;;;21.70;;
11125;SDS011;5617;54.046;10.676;2022-08-19T09:41:54;29.97;;;21.30;;
11125;SDS011;5617;54.046;10.676;2022-08-19T09:44:03;31.57;;;21.73;;
11125;SDS011;5617;54.046;10.676;2022-08-19T09:46:11;26.30;;;19.77;;
11125;SDS011;5617;54.046;10.676;2022-08-19T09:48:21;28.67;;;20.57;;
11125;SDS011;5617;54.046;10.676;2022-08-19T09:50:29;27.77;;;21.13;;
11125;SDS011;5617;54.046;10.676;2022-08-19T09:52:43;29.80;;;21.40;;
11125;SDS011;5617;54.046;10.676;2022-08-19T09:54:51;30.37;;;21.63;;
11125;SDS011;5617;54.046;10.676;2022-08-19T09:57:02;30.40;;;20.63;;
11125;SDS011;5617;54.046;10.676;2022-08-19T09:59:10;28.07;;;20.70;;
11125;SDS011;5617;54.046;10.676;2022-08-19T10:01:18;31.43;;;21.27;;
11125;SDS011;5617;54.046;10.676;2022-08-19T10:03:28;29.53;;;21.57;;
11125;SDS011;5617;54.046;10.676;2022-08-19T10:05:36;26.53;;;20.47;;
11125;SDS011;5617;54.046;10.676;2022-08-19T10:07:57;27.13;;;20.83;;
11125;SDS011;5617;54.046;10.676;2022-08-19T10:10:07;34.13;;;21.93;;
11125;SDS011;5617;54.046;10.676;2022-08-19T10:12:17;28.30;;;21.20;;
11125;SDS011;5617;54.046;10.676;2022-08-19T10:14:24;28.83;;;22.57;;
11125;SDS011;5617;54.046;10.676;2022-08-19T10:16:35;32.80;;;23.40;;
11125;SDS011;5617;54.046;10.676;2022-08-19T10:18:45;29.80;;;23.53;;
11125;SDS011;5617;54.046;10.676;2022-08-19T10:21:01;30.33;;;23.00;;
11125;SDS011;5617;54.046;10.676;2022-08-19T10:23:14;29.53;;;24.03;;
11125;SDS011;5617;54.046;10.676;2022-08-19T10:25:22;26.57;;;22.93;;
11125;SDS011;5617;54.046;10.676;2022-08-19T10:27:32;27.43;;;23.27;;
11125;SDS011;5617;54.046;10.676;2022-08-19T10:29:41;30.93;;;24.07;;
11125;SDS011;5617;54.046;10.676;2022-08-19T10:31:49;27.93;;;23.40;;
11125;SDS011;5617;54.046;10.676;2022-08-19T10:33:59;26.63;;;23.77;;
11125;SDS011;5617;54.046;10.676;2022-08-19T10:36:08;29.00;;;23.17;;
11125;SDS011;5617;54.046;10.676;2022-08-19T10:38:19;28.83;;;22.83;;
11125;SDS011;5617;54.046;10.676;2022-08-19T10:40:28;29.37;;;20.67;;
11125;SDS011;5617;54.046;10.676;2022-08-19T10:42:36;28.97;;;21.10;;
11125;SDS011;5617;54.046;10.676;2022-08-19T10:44:44;33.27;;;22.70;;
11125;SDS011;5617;54.046;10.676;2022-08-19T10:46:53;26.53;;;20.90;;
11125;SDS011;5617;54.046;10.676;2022-08-19T10:49:01;25.83;;;20.63;;
11125;SDS011;5617;54.046;10.676;2022-08-19T10:51:11;31.77;;;21.50;;
11125;SDS011;5617;54.046;10.676;2022-08-19T10:53:38;29.03;;;21.57;;
11125;SDS011;5617;54.046;10.676;2022-08-19T10:55:45;28.03;;;21.27;;
11125;SDS011;5617;54.046;10.676;2022-08-19T10:58:11;28.63;;;21.07;;
11125;SDS011;5617;54.046;10.676;2022-08-19T11:00:20;28.40;;;22.43;;
11125;SDS011;5617;54.046;10.676;2022-08-19T11:02:29;26.20;;;20.97;;
11125;SDS011;5617;54.046;10.676;2022-08-19T11:04:39;25.60;;;21.70;;
11125;SDS011;5617;54.046;10.676;2022-08-19T11:06:47;27.77;;;21.00;;
11125;SDS011;5617;54.046;10.676;2022-08-19T11:08:57;30.10;;;20.73;;
11125;SDS011;5617;54.046;10.676;2022-08-19T11:11:06;27.50;;;21.10;;
11125;SDS011;5617;54.046;10.676;2022-08-19T11:13:15;23.30;;;20.53;;
11125;SDS011;5617;54.046;10.676;2022-08-19T11:15:22;22.57;;;19.20;;
11125;SDS011;5617;54.046;10.676;2022-08-19T11:17:30;21.47;;;18.53;;
11125;SDS011;5617;54.046;10.676;2022-08-19T11:19:38;20.53;;;18.33;;
11125;SDS011;5617;54.046;10.676;2022-08-19T11:21:46;19.23;;;17.23;;
11125;SDS011;5617;54.046;10.676;2022-08-19T11:23:56;22.30;;;18.70;;
11125;SDS011;5617;54.046;10.676;2022-08-19T11:26:06;22.03;;;18.10;;
11125;SDS011;5617;54.046;10.676;2022-08-19T11:28:14;21.47;;;18.40;;
11125;SDS011;5617;54.046;10.676;2022-08-19T11:30:21;21.20;;;17.27;;
11125;SDS011;5617;54.046;10.676;2022-08-19T11:32:31;19.10;;;17.10;;
11125;SDS011;5617;54.046;10.676;2022-08-19T11:34:39;19.13;;;16.73;;
11125;SDS011;5617;54.046;10.676;2022-08-19T11:36:48;18.80;;;16.80;;
11125;SDS011;5617;54.046;10.676;2022-08-19T11:38:59;20.00;;;16.53;;
11125;SDS011;5617;54.046;10.676;2022-08-19T11:41:08;18.50;;;16.50;;
11125;SDS011;5617;54.046;10.676;2022-08-19T11:43:15;20.53;;;16.90;;
11125;SDS011;5617;54.046;10.676;2022-08-19T11:45:24;19.50;;;16.90;;
11125;SDS011;5617;54.046;10.676;2022-08-19T11:47:33;18.03;;;15.40;;
11125;SDS011;5617;54.046;10.676;2022-08-19T11:49:41;17.90;;;15.70;;
11125;SDS011;5617;54.046;10.676;2022-08-19T11:51:49;17.40;;;15.03;;
11125;SDS011;5617;54.046;10.676;2022-08-19T11:53:57;17.87;;;15.17;;
11125;SDS011;5617;54.046;10.676;2022-08-19T11:56:08;16.47;;;14.17;;
11125;SDS011;5617;54.046;10.676;2022-08-19T11:58:18;15.67;;;13.70;;
11125;SDS011;5617;54.046;10.676;2022-08-19T12:00:25;15.07;;;13.67;;
11125;SDS011;5617;54.046;10.676;2022-08-19T12:02:34;15.97;;;14.10;;
11125;SDS011;5617;54.046;10.676;2022-08-19T12:04:42;15.63;;;14.03;;
11125;SDS011;5617;54.046;10.676;2022-08-19T12:06:50;17.70;;;14.93;;
11125;SDS011;5617;54.046;10.676;2022-08-19T12:08:58;14.93;;;13.43;;
11125;SDS011;5617;54.046;10.676;2022-08-19T12:11:10;16.17;;;13.63;;
11125;SDS011;5617;54.046;10.676;2022-08-19T12:13:19;14.50;;;13.00;;
11125;SDS011;5617;54.046;10.676;2022-08-19T12:15:27;14.60;;;13.00;;
11125;SDS011;5617;54.046;10.676;2022-08-19T12:17:35;15.07;;;13.47;;
11125;SDS011;5617;54.046;10.676;2022-08-19T12:19:43;14.83;;;13.03;;
11125;SDS011;5617;54.046;10.676;2022-08-19T12:21:50;15.43;;;13.77;;
11125;SDS011;5617;54.046;10.676;2022-08-19T12:24:03;17.00;;;14.00;;
11125;SDS011;5617;54.046;10.676;2022-08-19T12:26:12;16.87;;;14.27;;
11125;SDS011;5617;54.046;10.676;2022-08-19T12:28:20;16.13;;;14.53;;
11125;SDS011;5617;54.046;10.676;2022-08-19T12:30:29;15.53;;;13.90;;
11125;SDS011;5617;54.046;10.676;2022-08-19T12:32:38;16.53;;;14.10;;
11125;SDS011;5617;54.046;10.676;2022-08-19T12:34:46;15.57;;;13.40;;
11125;SDS011;5617;54.046;10.676;2022-08-19T12:36:54;15.00;;;13.50;;
11125;SDS011;5617;54.046;10.676;2022-08-19T12:39:03;14.47;;;13.00;;